createdAt,value
2022-11-30T00:01:20.251Z,6.55
2022-11-30T00:03:47.236Z,5.10
2022-11-30T00:06:17.156Z,5.97
2022-11-30T00:08:44.350Z,7.53
2022-11-30T00:11:17.987Z,6.70
2022-11-30T00:13:44.974Z,6.80
2022-11-30T00:16:11.687Z,5.75
2022-11-30T00:18:39.326Z,6.60
2022-11-30T00:21:11.465Z,6.97
2022-11-30T00:23:40.730Z,7.80
2022-11-30T00:28:37.773Z,6.05
2022-11-30T00:31:07.675Z,6.20
2022-11-30T00:33:36.865Z,6.20
2022-11-30T00:36:06.974Z,6.47
2022-11-30T00:38:35.919Z,5.53
2022-11-30T00:41:03.051Z,6.63
2022-11-30T00:43:30.469Z,6.70
2022-11-30T00:45:57.707Z,8.23
2022-11-30T00:48:24.737Z,6.57
2022-11-30T00:50:51.940Z,6.55
2022-11-30T00:53:19.486Z,8.18
2022-11-30T00:55:47.056Z,6.55
2022-11-30T00:58:14.778Z,7.82
2022-11-30T01:00:41.958Z,7.65
2022-11-30T01:03:09.153Z,6.57
2022-11-30T01:05:36.675Z,8.73
2022-11-30T01:08:05.712Z,7.28
2022-11-30T01:10:34.161Z,7.03
2022-11-30T01:13:01.269Z,9.13
2022-11-30T01:15:28.291Z,6.10
2022-11-30T01:17:55.361Z,7.57
2022-11-30T01:20:22.414Z,6.18
2022-11-30T01:22:49.192Z,6.45
2022-11-30T01:25:15.995Z,7.65
2022-11-30T01:27:42.834Z,7.03
2022-11-30T01:30:10.108Z,5.68
2022-11-30T01:32:38.071Z,7.93
2022-11-30T01:35:05.058Z,7.82
2022-11-30T01:37:31.727Z,6.78
2022-11-30T01:39:58.740Z,6.82
2022-11-30T01:42:25.526Z,6.45
2022-11-30T01:45:02.447Z,7.75
2022-11-30T01:47:37.701Z,7.50
2022-11-30T01:50:11.116Z,7.63
2022-11-30T01:52:41.405Z,10.82
2022-11-30T01:55:08.644Z,7.15
2022-11-30T01:57:39.443Z,8.85
2022-11-30T02:00:13.002Z,8.00
2022-11-30T02:03:07.757Z,7.40
2022-11-30T02:05:39.919Z,8.68
2022-11-30T02:08:08.957Z,7.85
2022-11-30T02:10:38.836Z,8.27
2022-11-30T02:13:37.678Z,7.25
2022-11-30T02:16:19.311Z,6.57
2022-11-30T02:19:06.023Z,7.28
2022-11-30T02:21:47.312Z,7.57
2022-11-30T02:24:34.306Z,7.47
2022-11-30T02:27:38.725Z,8.13
2022-11-30T02:30:13.798Z,8.05
2022-11-30T02:32:50.602Z,8.35
2022-11-30T02:35:21.968Z,7.70
2022-11-30T02:37:51.268Z,7.88
2022-11-30T02:40:20.962Z,8.70
2022-11-30T02:42:50.450Z,8.15
2022-11-30T02:47:59.500Z,8.05
2022-11-30T02:50:34.026Z,8.02
2022-11-30T02:53:01.600Z,7.45
2022-11-30T02:55:29.176Z,8.35
2022-11-30T02:57:55.940Z,8.63
2022-11-30T03:00:22.752Z,8.20
2022-11-30T03:02:49.932Z,7.40
2022-11-30T03:05:16.917Z,8.40
2022-11-30T03:07:43.905Z,8.15
2022-11-30T03:10:11.207Z,8.80
2022-11-30T03:12:38.378Z,7.55
2022-11-30T03:15:06.317Z,6.50
2022-11-30T03:17:33.389Z,8.98
2022-11-30T03:20:00.596Z,7.55
2022-11-30T03:22:27.414Z,8.25
2022-11-30T03:24:54.320Z,8.73
2022-11-30T03:27:21.154Z,7.72
2022-11-30T03:29:47.989Z,7.18
2022-11-30T03:32:15.015Z,8.77
2022-11-30T03:34:41.813Z,8.30
2022-11-30T03:37:08.785Z,8.63
2022-11-30T03:39:35.907Z,9.60
2022-11-30T03:42:03.634Z,8.85
2022-11-30T03:44:30.331Z,8.57
2022-11-30T03:46:57.057Z,7.28
2022-11-30T03:49:24.020Z,7.50
2022-11-30T03:51:50.942Z,18.17
2022-11-30T03:54:17.837Z,9.13
2022-11-30T03:56:44.886Z,9.52
2022-11-30T03:59:11.909Z,8.93
2022-11-30T04:01:41.171Z,9.15
2022-11-30T04:06:34.863Z,8.80
2022-11-30T04:09:01.770Z,10.48
2022-11-30T04:11:28.483Z,8.32
2022-11-30T04:13:55.176Z,9.23
2022-11-30T04:16:21.996Z,9.48
2022-11-30T04:18:49.051Z,7.85
2022-11-30T04:21:16.190Z,8.63
2022-11-30T04:23:42.888Z,9.35
2022-11-30T04:26:12.553Z,9.10
2022-11-30T04:28:39.246Z,9.13
2022-11-30T04:31:06.322Z,7.65
2022-11-30T04:33:33.317Z,7.93
2022-11-30T04:36:02.759Z,8.30
2022-11-30T04:38:30.234Z,8.18
2022-11-30T04:40:57.111Z,8.98
2022-11-30T04:43:24.886Z,10.18
2022-11-30T04:45:51.975Z,7.97
2022-11-30T04:48:19.283Z,7.28
2022-11-30T04:50:46.328Z,7.85
2022-11-30T04:53:13.138Z,8.43
2022-11-30T04:55:39.952Z,8.65
2022-11-30T04:58:07.151Z,7.65
2022-11-30T05:00:34.583Z,8.32
2022-11-30T05:03:02.039Z,8.32
2022-11-30T05:05:28.772Z,9.18
2022-11-30T05:07:58.204Z,10.18
2022-11-30T05:12:52.489Z,8.60
2022-11-30T05:15:19.829Z,7.13
2022-11-30T05:17:46.873Z,10.35
2022-11-30T05:20:14.117Z,7.60
2022-11-30T05:22:41.027Z,7.57
2022-11-30T05:25:09.341Z,7.53
2022-11-30T05:27:37.020Z,7.05
2022-11-30T05:30:05.183Z,6.97
2022-11-30T05:32:32.476Z,8.88
2022-11-30T05:34:59.543Z,8.73
2022-11-30T05:37:26.534Z,8.82
2022-11-30T05:39:53.345Z,7.82
2022-11-30T05:42:20.035Z,8.55
2022-11-30T05:44:48.201Z,9.02
2022-11-30T05:47:15.873Z,9.52
2022-11-30T05:49:42.780Z,8.80
2022-11-30T05:52:09.716Z,9.13
2022-11-30T05:54:36.493Z,8.82
2022-11-30T05:57:03.552Z,8.13
2022-11-30T05:59:30.211Z,7.75
2022-11-30T06:01:57.280Z,8.30
2022-11-30T06:04:24.114Z,9.77
2022-11-30T06:06:52.331Z,10.98
2022-11-30T06:09:19.072Z,9.10
2022-11-30T06:11:45.863Z,9.13
2022-11-30T06:14:12.622Z,7.25
2022-11-30T06:16:40.124Z,7.63
2022-11-30T06:19:07.236Z,8.75
2022-11-30T06:21:34.667Z,8.23
2022-11-30T06:24:01.385Z,8.05
2022-11-30T06:26:28.381Z,9.38
2022-11-30T06:28:55.107Z,7.20
2022-11-30T06:31:21.837Z,6.53
2022-11-30T06:33:48.734Z,9.73
2022-11-30T06:36:21.850Z,7.40
2022-11-30T06:38:49.076Z,9.63
2022-11-30T06:41:16.017Z,6.38
2022-11-30T06:43:42.913Z,7.88
2022-11-30T06:46:13.043Z,7.03
2022-11-30T06:48:39.869Z,6.47
2022-11-30T06:51:08.379Z,9.75
2022-11-30T06:53:36.315Z,7.95
2022-11-30T06:56:10.353Z,6.93
2022-11-30T06:58:41.624Z,7.03
2022-11-30T07:01:10.924Z,8.48
2022-11-30T07:03:38.530Z,7.68
2022-11-30T07:06:13.149Z,7.07
2022-11-30T07:08:40.904Z,6.75
2022-11-30T07:11:09.447Z,8.75
2022-11-30T07:13:36.938Z,9.50
2022-11-30T07:16:05.595Z,8.68
2022-11-30T07:18:33.062Z,7.50
2022-11-30T07:21:04.748Z,7.18
2022-11-30T07:23:55.813Z,7.88
2022-11-30T07:26:24.513Z,8.73
2022-11-30T07:28:58.369Z,8.27
2022-11-30T07:31:30.544Z,8.05
2022-11-30T07:33:59.212Z,7.72
2022-11-30T07:36:27.285Z,6.40
2022-11-30T07:38:54.297Z,9.93
2022-11-30T07:41:21.133Z,7.32
2022-11-30T07:43:48.018Z,8.50
2022-11-30T07:46:16.077Z,8.88
2022-11-30T07:48:44.324Z,9.43
2022-11-30T07:51:13.155Z,7.55
2022-11-30T07:53:40.342Z,8.48
2022-11-30T07:56:17.558Z,8.55
2022-11-30T07:58:44.505Z,8.38
2022-11-30T08:01:19.869Z,9.13
2022-11-30T08:03:46.989Z,8.40
2022-11-30T08:06:16.596Z,9.02
2022-11-30T08:08:44.781Z,7.82
2022-11-30T08:11:13.990Z,9.20
2022-11-30T08:13:41.379Z,9.25
2022-11-30T08:16:12.514Z,9.45
2022-11-30T08:18:40.054Z,7.97
2022-11-30T08:21:09.352Z,8.23
2022-11-30T08:23:39.497Z,8.60
2022-11-30T08:26:09.143Z,7.78
2022-11-30T08:28:36.299Z,8.63
2022-11-30T08:31:06.251Z,7.38
2022-11-30T08:33:34.476Z,8.50
2022-11-30T08:36:12.819Z,7.38
2022-11-30T08:38:41.288Z,6.82
2022-11-30T08:41:10.648Z,7.50
2022-11-30T08:43:37.772Z,6.93
2022-11-30T08:46:27.611Z,7.78
2022-11-30T08:49:12.532Z,7.75
2022-11-30T08:52:14.647Z,8.23
2022-11-30T08:54:28.028Z,8.48
2022-11-30T08:56:54.795Z,6.90
2022-11-30T08:59:21.696Z,7.20
2022-11-30T09:01:48.506Z,7.60
2022-11-30T09:04:15.174Z,7.20
2022-11-30T09:06:42.013Z,8.27
2022-11-30T09:09:09.018Z,8.43
2022-11-30T09:11:35.803Z,8.85
2022-11-30T09:14:09.031Z,7.65
2022-11-30T09:16:36.100Z,7.25
2022-11-30T09:19:03.518Z,6.20
2022-11-30T09:21:30.571Z,7.10
2022-11-30T09:23:57.332Z,6.40
2022-11-30T09:26:25.695Z,6.75
2022-11-30T09:28:54.171Z,7.13
2022-11-30T09:31:23.697Z,7.90
2022-11-30T09:33:51.012Z,8.23
2022-11-30T09:36:20.537Z,7.40
2022-11-30T09:38:47.709Z,6.95
2022-11-30T09:41:35.885Z,8.32
2022-11-30T09:44:29.835Z,6.72
2022-11-30T09:47:05.698Z,7.40
2022-11-30T09:49:36.772Z,8.88
2022-11-30T09:52:09.903Z,7.72
2022-11-30T09:54:41.048Z,7.45
2022-11-30T09:57:25.898Z,7.32
2022-11-30T10:00:12.515Z,6.47
2022-11-30T10:05:14.350Z,7.85
2022-11-30T10:07:50.215Z,7.45
2022-11-30T10:10:32.687Z,9.35
2022-11-30T10:13:23.397Z,7.90
2022-11-30T10:15:56.234Z,8.10
2022-11-30T10:18:31.392Z,8.23
2022-11-30T10:21:10.819Z,7.80
2022-11-30T10:26:35.578Z,7.47
2022-11-30T10:29:14.556Z,7.88
2022-11-30T10:31:43.268Z,7.82
2022-11-30T10:34:35.048Z,8.40
2022-11-30T10:37:12.692Z,8.15
2022-11-30T10:39:48.848Z,7.07
2022-11-30T10:42:26.363Z,7.97
2022-11-30T10:45:03.348Z,6.45
2022-11-30T10:47:37.247Z,6.32
2022-11-30T10:50:26.299Z,6.95
2022-11-30T10:52:56.180Z,6.78
2022-11-30T10:55:26.299Z,8.23
2022-11-30T10:58:05.202Z,6.60
2022-11-30T11:00:32.882Z,6.80
2022-11-30T11:02:59.595Z,6.30
2022-11-30T11:05:28.869Z,5.93
2022-11-30T11:08:02.724Z,6.10
2022-11-30T11:10:49.578Z,5.72
2022-11-30T11:13:42.220Z,6.60
2022-11-30T11:16:12.097Z,6.65
2022-11-30T11:18:56.737Z,6.28
2022-11-30T11:21:24.915Z,5.30
2022-11-30T11:23:57.308Z,7.68
2022-11-30T11:26:27.237Z,5.88
2022-11-30T11:28:56.447Z,6.25
2022-11-30T11:31:42.844Z,6.88
2022-11-30T11:34:31.690Z,6.78
2022-11-30T11:37:12.681Z,8.25
2022-11-30T11:39:39.691Z,7.15
2022-11-30T11:42:17.688Z,7.20
2022-11-30T11:44:52.288Z,6.20
2022-11-30T11:47:28.053Z,5.82
2022-11-30T11:50:13.111Z,7.05
2022-11-30T11:52:39.962Z,7.47
2022-11-30T11:55:14.895Z,7.05
2022-11-30T11:57:57.318Z,6.55
2022-11-30T12:00:25.477Z,6.28
2022-11-30T12:03:01.374Z,7.18
2022-11-30T12:05:34.626Z,8.75
2022-11-30T12:08:01.756Z,12.20
2022-11-30T12:10:52.093Z,9.43
2022-11-30T12:13:22.736Z,10.48
2022-11-30T12:16:15.810Z,22.10
2022-11-30T12:19:03.151Z,14.75
2022-11-30T12:22:06.745Z,13.60
2022-11-30T12:24:48.892Z,11.73
2022-11-30T12:27:29.726Z,14.20
2022-11-30T12:29:56.771Z,9.90
2022-11-30T12:32:48.669Z,7.50
2022-11-30T12:35:15.515Z,11.05
2022-11-30T12:38:23.771Z,8.48
2022-11-30T12:41:29.653Z,11.88
2022-11-30T12:56:11.494Z,6.63
2022-11-30T12:58:58.364Z,8.70
2022-11-30T13:01:39.316Z,7.82
2022-11-30T13:04:38.200Z,6.93
2022-11-30T13:07:29.692Z,6.53
2022-11-30T13:10:06.892Z,6.82
2022-11-30T13:12:39.144Z,5.50
2022-11-30T13:15:15.801Z,7.47
2022-11-30T13:17:43.906Z,6.20
2022-11-30T13:20:19.812Z,5.95
2022-11-30T13:23:12.749Z,5.93
2022-11-30T13:26:11.763Z,6.38
2022-11-30T13:28:54.974Z,6.38
2022-11-30T13:31:30.326Z,6.63
2022-11-30T13:33:59.709Z,7.32
2022-11-30T13:36:43.587Z,8.25
2022-11-30T13:39:23.734Z,6.15
2022-11-30T13:42:02.319Z,7.50
2022-11-30T13:44:35.006Z,6.37
2022-11-30T13:47:05.148Z,6.22
2022-11-30T13:49:37.404Z,7.80
2022-11-30T13:54:57.466Z,4.90
2022-11-30T13:57:30.255Z,5.38
2022-11-30T14:00:01.436Z,5.63
2022-11-30T14:02:36.487Z,6.72
2022-11-30T14:05:23.327Z,6.43
2022-11-30T14:07:50.666Z,5.65
2022-11-30T14:10:27.951Z,6.10
2022-11-30T14:13:05.839Z,7.20
2022-11-30T14:15:38.530Z,6.03
2022-11-30T14:18:07.992Z,4.97
2022-11-30T14:20:58.328Z,6.70
2022-11-30T14:23:39.789Z,5.18
2022-11-30T14:26:13.568Z,5.45
2022-11-30T14:28:47.158Z,5.82
2022-11-30T14:31:21.471Z,5.55
2022-11-30T14:33:54.457Z,5.03
2022-11-30T14:36:26.756Z,5.28
2022-11-30T14:38:53.950Z,5.18
2022-11-30T14:41:25.712Z,6.07
2022-11-30T14:44:03.677Z,8.30
2022-11-30T14:46:33.813Z,5.43
2022-11-30T14:49:14.768Z,5.10
2022-11-30T14:51:54.030Z,6.28
2022-11-30T14:57:16.010Z,5.47
2022-11-30T14:59:51.861Z,4.72
2022-11-30T15:02:38.971Z,7.45
2022-11-30T15:05:08.846Z,5.28
2022-11-30T15:07:37.157Z,7.35
2022-11-30T15:10:11.469Z,5.03
2022-11-30T15:12:40.763Z,4.68
2022-11-30T15:15:20.660Z,5.82
2022-11-30T15:18:13.974Z,4.97
2022-11-30T15:21:02.823Z,6.13
2022-11-30T15:23:29.869Z,5.78
2022-11-30T15:26:03.684Z,5.30
2022-11-30T15:28:34.394Z,5.05
2022-11-30T15:31:05.642Z,6.57
2022-11-30T15:33:42.035Z,5.93
2022-11-30T15:36:31.805Z,4.80
2022-11-30T15:39:03.213Z,5.95
2022-11-30T15:41:31.890Z,5.80
2022-11-30T15:44:17.145Z,5.20
2022-11-30T15:46:59.335Z,5.20
2022-11-30T15:49:48.263Z,5.38
2022-11-30T15:52:18.176Z,5.00
2022-11-30T15:54:52.768Z,5.20
2022-11-30T15:57:21.214Z,5.90
2022-11-30T16:00:21.034Z,7.37
2022-11-30T16:02:48.055Z,4.70
2022-11-30T16:05:18.124Z,5.57
2022-11-30T16:07:57.245Z,5.07
2022-11-30T16:12:54.581Z,5.40
2022-11-30T16:15:31.813Z,6.45
2022-11-30T16:18:17.438Z,5.13
2022-11-30T16:20:46.892Z,4.47
2022-11-30T16:25:43.647Z,4.75
2022-11-30T16:28:12.349Z,4.85
2022-11-30T16:30:40.379Z,6.10
2022-11-30T16:33:16.381Z,4.78
2022-11-30T16:35:55.230Z,4.63
2022-11-30T16:38:23.164Z,4.65
2022-11-30T16:40:54.291Z,5.05
2022-11-30T16:43:25.805Z,4.63
2022-11-30T16:45:52.617Z,4.32
2022-11-30T16:48:20.185Z,4.20
2022-11-30T16:50:47.238Z,4.78
2022-11-30T16:53:17.622Z,4.93
2022-11-30T16:55:44.438Z,4.55
2022-11-30T16:58:11.147Z,4.32
2022-11-30T17:00:39.867Z,4.85
2022-11-30T17:03:21.857Z,5.60
2022-11-30T17:05:48.574Z,4.10
2022-11-30T17:08:15.779Z,4.78
2022-11-30T17:10:42.586Z,4.20
2022-11-30T17:13:18.328Z,4.88
2022-11-30T17:15:45.128Z,4.10
2022-11-30T17:18:11.973Z,4.35
2022-11-30T17:20:39.269Z,4.50
2022-11-30T17:23:06.399Z,4.60
2022-11-30T17:25:33.320Z,5.28
2022-11-30T17:28:00.196Z,3.40
2022-11-30T17:30:27.879Z,4.13
2022-11-30T17:32:54.719Z,4.28
2022-11-30T17:35:21.526Z,4.90
2022-11-30T17:37:48.369Z,5.25
2022-11-30T17:40:18.004Z,5.22
2022-11-30T17:42:44.785Z,5.65
2022-11-30T17:45:11.692Z,4.65
2022-11-30T17:47:38.481Z,7.03
2022-11-30T17:50:07.281Z,4.18
2022-11-30T17:52:33.971Z,5.30
2022-11-30T17:55:00.647Z,5.03
2022-11-30T17:57:27.349Z,4.90
2022-11-30T17:59:54.240Z,5.82
2022-11-30T18:02:21.020Z,5.15
2022-11-30T18:04:47.936Z,4.30
2022-11-30T18:07:15.383Z,5.30
2022-11-30T18:09:43.048Z,4.30
2022-11-30T18:12:10.767Z,5.43
2022-11-30T18:14:37.647Z,4.93
2022-11-30T18:17:04.532Z,4.25
2022-11-30T18:19:31.206Z,3.67
2022-11-30T18:21:57.858Z,4.95
2022-11-30T18:24:25.675Z,5.95
2022-11-30T18:26:53.052Z,4.13
2022-11-30T18:29:20.187Z,4.72
2022-11-30T18:31:48.498Z,5.25
2022-11-30T18:34:15.593Z,4.87
2022-11-30T18:36:42.751Z,3.20
2022-11-30T18:39:09.490Z,4.88
2022-11-30T18:41:36.425Z,4.18
2022-11-30T18:44:03.054Z,5.18
2022-11-30T18:46:29.995Z,4.03
2022-11-30T18:48:57.085Z,4.20
2022-11-30T18:51:26.653Z,5.47
2022-11-30T18:54:01.644Z,4.68
2022-11-30T18:56:31.712Z,4.10
2022-11-30T18:59:03.478Z,5.57
2022-11-30T19:01:31.440Z,4.05
2022-11-30T19:04:00.426Z,4.18
2022-11-30T19:06:29.848Z,6.57
2022-11-30T19:08:57.227Z,4.35
2022-11-30T19:11:24.123Z,4.22
2022-11-30T19:13:58.537Z,5.45
2022-11-30T19:16:26.927Z,4.95
2022-11-30T19:18:54.724Z,6.13
2022-11-30T19:21:22.949Z,4.32
2022-11-30T19:23:50.185Z,4.50
2022-11-30T19:26:17.334Z,4.78
2022-11-30T19:28:45.245Z,6.18
2022-11-30T19:31:19.558Z,3.97
2022-11-30T19:33:49.173Z,3.80
2022-11-30T19:36:22.540Z,4.28
2022-11-30T19:38:51.379Z,4.78
2022-11-30T19:41:19.607Z,5.60
2022-11-30T19:43:52.986Z,4.85
2022-11-30T19:46:21.994Z,4.53
2022-11-30T19:48:48.653Z,3.80
2022-11-30T19:51:18.534Z,5.68
2022-11-30T19:53:46.002Z,4.47
2022-11-30T19:56:17.467Z,4.55
2022-11-30T19:58:46.031Z,4.47
2022-11-30T20:01:19.412Z,5.80
2022-11-30T20:03:46.530Z,3.80
2022-11-30T20:06:13.492Z,5.68
2022-11-30T20:08:41.119Z,5.97
2022-11-30T20:11:09.181Z,4.63
2022-11-30T20:13:36.059Z,5.15
2022-11-30T20:16:13.488Z,3.80
2022-11-30T20:18:45.772Z,4.95
2022-11-30T20:21:19.016Z,4.80
2022-11-30T20:23:47.337Z,3.83
2022-11-30T20:26:26.077Z,4.10
2022-11-30T20:28:53.605Z,5.25
2022-11-30T20:31:22.238Z,4.45
2022-11-30T20:33:49.040Z,4.23
2022-11-30T20:36:20.098Z,4.25
2022-11-30T20:38:47.328Z,4.60
2022-11-30T20:41:16.740Z,4.03
2022-11-30T20:46:23.411Z,3.85
2022-11-30T20:48:51.024Z,4.22
2022-11-30T20:51:36.592Z,5.13
2022-11-30T20:54:08.288Z,4.13
2022-11-30T20:56:37.353Z,3.78
2022-11-30T20:59:06.564Z,4.85
2022-11-30T21:01:33.703Z,5.00
2022-11-30T21:04:01.134Z,4.80
2022-11-30T21:06:29.981Z,5.50
2022-11-30T21:08:57.652Z,5.87
2022-11-30T21:11:25.014Z,4.60
2022-11-30T21:13:52.135Z,4.20
2022-11-30T21:16:27.278Z,3.88
2022-11-30T21:18:55.292Z,5.10
2022-11-30T21:21:24.499Z,4.13
2022-11-30T21:23:51.664Z,4.65
2022-11-30T21:26:18.206Z,5.53
2022-11-30T21:28:46.384Z,5.38
2022-11-30T21:31:13.478Z,5.45
2022-11-30T21:33:40.451Z,6.38
2022-11-30T21:36:08.961Z,5.95
2022-11-30T21:38:35.862Z,6.17
2022-11-30T21:41:03.315Z,5.15
2022-11-30T21:43:33.283Z,7.63
2022-11-30T21:46:04.679Z,4.70
2022-11-30T21:48:33.962Z,6.38
2022-11-30T21:51:07.007Z,6.25
2022-11-30T21:53:37.888Z,5.10
2022-11-30T21:56:06.474Z,7.25
2022-11-30T21:58:33.766Z,5.73
2022-11-30T22:01:02.548Z,6.95
2022-11-30T22:03:29.598Z,6.45
2022-11-30T22:06:05.126Z,5.65
2022-11-30T22:08:32.721Z,5.38
2022-11-30T22:11:01.821Z,6.97
2022-11-30T22:13:29.858Z,6.43
2022-11-30T22:15:58.671Z,6.25
2022-11-30T22:18:25.564Z,6.05
2022-11-30T22:20:52.254Z,6.53
2022-11-30T22:23:19.085Z,5.60
2022-11-30T22:25:45.776Z,7.38
2022-11-30T22:28:12.564Z,5.75
2022-11-30T22:30:39.182Z,6.18
2022-11-30T22:33:06.080Z,9.02
2022-11-30T22:35:33.180Z,7.70
2022-11-30T22:37:59.850Z,6.60
2022-11-30T22:40:26.533Z,9.18
2022-11-30T22:42:53.222Z,8.07
2022-11-30T22:45:20.016Z,8.27
2022-11-30T22:47:46.793Z,6.57
2022-11-30T22:50:13.344Z,7.97
2022-11-30T22:53:02.055Z,9.95
2022-11-30T22:55:26.896Z,8.30
2022-11-30T22:57:53.640Z,8.75
2022-11-30T23:00:20.418Z,8.07
2022-11-30T23:02:49.106Z,8.45
2022-11-30T23:05:15.833Z,11.80
2022-11-30T23:07:42.532Z,8.55
2022-11-30T23:10:27.809Z,9.65
2022-11-30T23:13:01.449Z,8.63
2022-11-30T23:15:28.010Z,9.35
2022-11-30T23:17:54.606Z,7.85
2022-11-30T23:20:22.526Z,8.23
2022-11-30T23:22:49.113Z,7.75
2022-11-30T23:25:16.833Z,9.50
2022-11-30T23:27:43.724Z,10.77
2022-11-30T23:30:10.608Z,8.13
2022-11-30T23:32:37.242Z,9.63
2022-11-30T23:35:03.996Z,9.25
2022-11-30T23:37:31.109Z,8.45
2022-11-30T23:39:57.729Z,9.05
2022-11-30T23:42:24.418Z,9.20
2022-11-30T23:44:57.435Z,10.80
2022-11-30T23:47:24.032Z,10.07
2022-11-30T23:49:50.938Z,9.07
2022-11-30T23:52:17.666Z,9.23
2022-11-30T23:54:44.223Z,8.90
2022-11-30T23:57:10.847Z,7.85
2022-11-30T23:59:37.483Z,10.65
